createdAt,value
2023-03-22T00:01:59.010Z,48.80
2023-03-22T00:04:31.645Z,48.00
2023-03-22T00:07:04.421Z,42.50
2023-03-22T00:09:38.028Z,40.40
2023-03-22T00:12:11.112Z,37.40
2023-03-22T00:14:45.727Z,41.50
2023-03-22T00:17:19.668Z,36.40
2023-03-22T00:19:54.925Z,39.10
2023-03-22T00:22:27.879Z,38.40
2023-03-22T00:25:00.715Z,41.90
2023-03-22T00:27:34.041Z,45.20
2023-03-22T00:30:07.414Z,41.40
2023-03-22T00:32:42.517Z,45.70
2023-03-22T00:35:15.309Z,38.40
2023-03-22T00:37:53.124Z,53.90
2023-03-22T00:40:26.224Z,39.10
2023-03-22T00:42:59.325Z,41.40
2023-03-22T00:45:36.499Z,57.00
2023-03-22T00:48:10.282Z,48.40
2023-03-22T00:50:45.093Z,38.30
2023-03-22T00:53:18.481Z,42.20
2023-03-22T00:55:57.572Z,59.10
2023-03-22T00:58:31.616Z,42.40
2023-03-22T01:01:04.947Z,58.10
2023-03-22T01:03:39.732Z,66.00
2023-03-22T01:06:13.380Z,62.50
2023-03-22T01:08:46.285Z,60.80
2023-03-22T01:11:19.378Z,77.60
2023-03-22T01:13:52.136Z,82.00
2023-03-22T01:16:24.725Z,78.30
2023-03-22T01:18:57.712Z,89.10
2023-03-22T01:21:30.671Z,91.80
2023-03-22T01:24:03.466Z,85.20
2023-03-22T01:26:36.414Z,82.90
2023-03-22T01:29:09.142Z,86.60
2023-03-22T01:31:41.848Z,86.20
2023-03-22T01:34:14.692Z,92.20
2023-03-22T01:36:48.087Z,85.00
2023-03-22T01:39:21.125Z,88.30
2023-03-22T01:41:56.013Z,88.80
2023-03-22T01:44:32.049Z,97.50
2023-03-22T01:47:05.574Z,90.90
2023-03-22T01:49:38.698Z,94.50
2023-03-22T01:52:13.116Z,92.20
2023-03-22T01:55:12.997Z,100.00
2023-03-22T01:57:50.431Z,95.00
2023-03-22T02:00:28.423Z,103.30
2023-03-22T02:03:28.832Z,103.40
2023-03-22T02:06:01.889Z,105.30
2023-03-22T02:08:35.084Z,105.90
2023-03-22T02:11:15.404Z,103.30
2023-03-22T02:14:09.422Z,105.00
2023-03-22T02:17:09.378Z,109.60
2023-03-22T02:20:16.792Z,112.70
2023-03-22T02:23:02.421Z,111.30
2023-03-22T02:26:05.434Z,116.30
2023-03-22T02:28:45.894Z,106.30
2023-03-22T02:31:28.262Z,91.70
2023-03-22T02:34:32.676Z,83.90
2023-03-22T02:37:28.517Z,92.70
2023-03-22T02:40:02.761Z,85.40
2023-03-22T02:42:45.573Z,83.20
2023-03-22T02:45:19.976Z,83.10
2023-03-22T02:47:56.430Z,97.40
2023-03-22T02:50:30.019Z,85.80
2023-03-22T02:53:04.865Z,75.10
2023-03-22T02:55:39.351Z,84.00
2023-03-22T02:58:13.809Z,81.60
2023-03-22T03:00:46.686Z,84.80
2023-03-22T03:03:20.438Z,76.40
2023-03-22T03:05:54.884Z,79.70
2023-03-22T03:08:27.598Z,81.00
2023-03-22T03:11:04.869Z,79.80
2023-03-22T03:13:37.817Z,89.50
2023-03-22T03:16:17.763Z,85.20
2023-03-22T03:18:55.955Z,80.10
2023-03-22T03:21:32.991Z,77.20
2023-03-22T03:24:21.131Z,79.70
2023-03-22T03:26:58.225Z,80.20
2023-03-22T03:29:34.843Z,85.60
2023-03-22T03:32:11.358Z,72.20
2023-03-22T03:34:53.120Z,77.40
2023-03-22T03:37:27.447Z,81.90
2023-03-22T03:40:10.068Z,75.30
2023-03-22T03:42:45.818Z,73.10
2023-03-22T03:45:19.040Z,83.30
2023-03-22T03:47:57.237Z,79.70
2023-03-22T03:50:30.344Z,73.80
2023-03-22T03:53:04.215Z,71.60
2023-03-22T03:55:37.960Z,81.70
2023-03-22T03:58:13.283Z,78.40
2023-03-22T04:00:47.802Z,89.40
2023-03-22T04:03:39.279Z,94.60
2023-03-22T04:06:19.156Z,89.30
2023-03-22T04:08:56.843Z,92.50
2023-03-22T04:11:33.520Z,89.20
2023-03-22T04:14:08.338Z,80.40
2023-03-22T04:16:41.364Z,80.40
2023-03-22T04:19:16.819Z,75.60
2023-03-22T04:21:53.345Z,72.70
2023-03-22T04:24:26.618Z,72.40
2023-03-22T04:26:59.523Z,74.70
2023-03-22T04:29:48.887Z,89.40
2023-03-22T04:33:01.528Z,81.00
2023-03-22T04:35:57.441Z,68.50
2023-03-22T04:38:37.587Z,66.80
2023-03-22T04:41:11.012Z,67.60
2023-03-22T04:43:52.012Z,68.70
2023-03-22T04:46:25.073Z,67.80
2023-03-22T04:49:05.611Z,60.30
2023-03-22T04:51:40.685Z,61.40
2023-03-22T04:54:34.001Z,64.30
2023-03-22T04:57:07.630Z,64.30
2023-03-22T04:59:45.050Z,64.80
2023-03-22T05:02:21.138Z,73.20
2023-03-22T05:04:54.627Z,70.00
2023-03-22T05:07:39.465Z,74.40
2023-03-22T05:10:16.691Z,78.30
2023-03-22T05:12:50.099Z,67.70
2023-03-22T05:15:36.115Z,76.20
2023-03-22T05:18:10.676Z,79.20
2023-03-22T05:20:43.681Z,76.50
2023-03-22T05:23:26.137Z,68.90
2023-03-22T05:26:02.237Z,65.80
2023-03-22T05:28:36.590Z,82.80
2023-03-22T05:31:28.908Z,71.30
2023-03-22T05:34:09.991Z,79.30
2023-03-22T05:36:43.534Z,70.50
2023-03-22T05:39:38.558Z,62.80
2023-03-22T05:42:13.248Z,63.90
2023-03-22T05:44:47.091Z,74.90
2023-03-22T05:47:20.901Z,65.90
2023-03-22T05:50:09.713Z,66.10
2023-03-22T05:52:45.777Z,63.00
2023-03-22T05:55:39.608Z,81.20
2023-03-22T05:58:19.352Z,59.50
2023-03-22T06:00:52.944Z,64.30
2023-03-22T06:03:31.427Z,61.30
2023-03-22T06:06:12.500Z,62.00
2023-03-22T06:09:10.464Z,55.80
2023-03-22T06:11:55.583Z,59.80
2023-03-22T06:14:28.753Z,52.50
2023-03-22T06:17:20.981Z,60.70
2023-03-22T06:19:56.648Z,57.40
2023-03-22T06:22:33.609Z,57.40
2023-03-22T06:25:08.232Z,53.50
2023-03-22T06:27:45.627Z,58.20
2023-03-22T06:30:19.381Z,65.50
2023-03-22T06:33:09.045Z,55.10
2023-03-22T06:35:44.618Z,53.20
2023-03-22T06:38:20.455Z,52.30
2023-03-22T06:40:53.476Z,53.10
2023-03-22T06:43:26.490Z,61.10
2023-03-22T06:46:03.812Z,51.30
2023-03-22T06:48:41.504Z,47.90
2023-03-22T06:51:21.022Z,51.20
2023-03-22T06:53:54.116Z,50.40
2023-03-22T06:56:27.280Z,47.90
2023-03-22T06:59:00.279Z,53.00
2023-03-22T07:01:34.290Z,51.30
2023-03-22T07:04:08.441Z,54.00
2023-03-22T07:06:41.358Z,51.60
2023-03-22T07:09:14.143Z,55.70
2023-03-22T07:11:47.221Z,57.20
2023-03-22T07:14:22.412Z,51.40
2023-03-22T07:17:15.837Z,48.00
2023-03-22T07:19:54.730Z,57.60
2023-03-22T07:22:28.394Z,70.20
2023-03-22T07:25:04.996Z,53.40
2023-03-22T07:27:57.381Z,53.10
2023-03-22T07:30:31.276Z,45.60
2023-03-22T07:33:04.496Z,47.20
2023-03-22T07:35:37.455Z,51.30
2023-03-22T07:38:11.200Z,42.40
2023-03-22T07:40:44.232Z,47.80
2023-03-22T07:43:18.140Z,47.00
2023-03-22T07:46:22.225Z,50.60
2023-03-22T07:49:07.395Z,49.90
2023-03-22T07:52:06.875Z,54.90
2023-03-22T07:54:40.551Z,60.50
2023-03-22T07:57:16.486Z,57.60
2023-03-22T07:59:58.757Z,65.20
2023-03-22T08:02:49.068Z,63.10
2023-03-22T08:05:42.982Z,65.00
2023-03-22T08:08:18.457Z,56.60
2023-03-22T08:10:54.814Z,48.90
2023-03-22T08:13:28.540Z,38.40
2023-03-22T08:16:03.860Z,42.10
2023-03-22T08:18:37.323Z,36.40
2023-03-22T08:21:10.962Z,31.40
2023-03-22T08:23:45.654Z,34.40
2023-03-22T08:26:39.861Z,25.90
2023-03-22T08:29:23.390Z,32.20
2023-03-22T08:31:56.579Z,32.60
2023-03-22T08:34:29.203Z,37.00
2023-03-22T08:37:02.355Z,35.40
2023-03-22T08:39:35.337Z,34.00
2023-03-22T08:42:26.856Z,26.90
2023-03-22T08:44:59.935Z,32.60
2023-03-22T08:47:33.971Z,31.20
2023-03-22T08:50:10.719Z,34.00
2023-03-22T08:52:53.948Z,21.60
2023-03-22T08:55:36.307Z,19.90
2023-03-22T08:58:16.596Z,21.00
2023-03-22T09:03:56.587Z,21.40
2023-03-22T09:06:29.872Z,17.10
2023-03-22T09:09:02.583Z,22.20
2023-03-22T09:11:37.506Z,23.20
2023-03-22T09:14:10.215Z,16.60
2023-03-22T09:16:43.011Z,20.40
2023-03-22T09:19:16.998Z,15.00
2023-03-22T09:21:51.196Z,13.80
2023-03-22T09:24:34.049Z,14.90
2023-03-22T09:27:09.132Z,19.50
2023-03-22T09:29:42.774Z,17.00
2023-03-22T09:32:21.403Z,22.80
2023-03-22T09:35:01.108Z,24.20
2023-03-22T09:37:45.901Z,30.90
2023-03-22T09:40:19.831Z,23.00
2023-03-22T09:42:53.707Z,21.80
2023-03-22T09:45:35.464Z,19.80
2023-03-22T09:48:12.938Z,22.20
2023-03-22T09:50:49.134Z,18.60
2023-03-22T09:53:22.633Z,17.70
2023-03-22T09:55:59.131Z,19.10
2023-03-22T09:58:38.523Z,21.30
2023-03-22T10:01:16.323Z,23.30
2023-03-22T10:04:06.539Z,21.90
2023-03-22T10:06:46.888Z,20.10
2023-03-22T10:09:27.715Z,23.40
2023-03-22T10:12:05.411Z,20.60
2023-03-22T10:14:39.883Z,27.60
2023-03-22T10:17:16.083Z,18.00
2023-03-22T10:19:53.152Z,19.90
2023-03-22T10:22:30.037Z,25.60
2023-03-22T10:25:03.445Z,34.60
2023-03-22T10:27:36.574Z,20.60
2023-03-22T10:30:18.450Z,27.70
2023-03-22T10:32:57.885Z,22.50
2023-03-22T10:35:32.114Z,17.90
2023-03-22T10:38:05.738Z,19.20
2023-03-22T10:40:40.586Z,16.20
2023-03-22T10:43:18.609Z,13.90
2023-03-22T10:45:51.479Z,19.80
2023-03-22T10:48:33.262Z,19.50
2023-03-22T10:53:40.697Z,16.00
2023-03-22T10:56:15.968Z,21.10
2023-03-22T10:58:51.714Z,13.30
2023-03-22T11:01:31.689Z,17.20
2023-03-22T11:04:09.645Z,19.40
2023-03-22T11:06:54.751Z,17.60
2023-03-22T11:09:29.142Z,14.70
2023-03-22T11:12:02.091Z,17.20
2023-03-22T11:14:36.980Z,17.50
2023-03-22T11:17:14.464Z,16.60
2023-03-22T11:19:56.473Z,14.70
2023-03-22T11:22:34.637Z,11.80
2023-03-22T11:25:11.756Z,17.90
2023-03-22T11:27:53.287Z,14.80
2023-03-22T11:30:28.185Z,19.40
2023-03-22T11:33:11.467Z,12.70
2023-03-22T11:35:46.110Z,22.00
2023-03-22T11:38:37.826Z,19.40
2023-03-22T11:41:14.287Z,14.60
2023-03-22T11:43:55.063Z,19.80
2023-03-22T11:46:37.043Z,20.30
2023-03-22T11:49:10.757Z,12.90
2023-03-22T11:51:48.771Z,12.90
2023-03-22T11:54:27.200Z,22.00
2023-03-22T11:57:02.221Z,16.30
2023-03-22T11:59:51.051Z,12.50
2023-03-22T12:02:26.860Z,15.80
2023-03-22T12:05:03.318Z,14.10
2023-03-22T12:07:36.528Z,14.80
2023-03-22T12:10:13.540Z,14.30
2023-03-22T12:12:52.896Z,15.10
2023-03-22T12:15:26.332Z,13.60
2023-03-22T12:18:00.468Z,16.30
2023-03-22T12:20:46.546Z,19.80
2023-03-22T12:23:20.598Z,12.60
2023-03-22T12:25:57.528Z,11.40
2023-03-22T12:28:33.640Z,18.70
2023-03-22T12:31:08.370Z,9.80
2023-03-22T12:33:50.869Z,11.80
2023-03-22T12:36:25.386Z,14.90
2023-03-22T12:39:00.703Z,16.00
2023-03-22T12:41:35.645Z,10.80
2023-03-22T12:44:11.646Z,12.70
2023-03-22T12:46:50.830Z,12.20
2023-03-22T12:49:27.811Z,13.70
2023-03-22T12:52:04.920Z,10.80
2023-03-22T12:54:38.665Z,14.40
2023-03-22T12:57:11.743Z,9.50
2023-03-22T12:59:49.509Z,13.70
2023-03-22T13:02:24.877Z,13.00
2023-03-22T13:05:00.258Z,15.80
2023-03-22T13:07:41.729Z,14.80
2023-03-22T13:10:49.720Z,11.60
2023-03-22T13:13:37.069Z,9.70
2023-03-22T13:16:22.703Z,10.50
2023-03-22T13:19:18.802Z,11.50
2023-03-22T13:21:54.508Z,10.00
2023-03-22T13:24:27.619Z,10.40
2023-03-22T13:27:00.695Z,9.40
2023-03-22T13:29:39.156Z,15.80
2023-03-22T13:32:28.713Z,10.60
2023-03-22T13:35:01.833Z,14.60
2023-03-22T13:37:37.054Z,7.60
2023-03-22T13:40:17.559Z,11.50
2023-03-22T13:42:50.612Z,13.30
2023-03-22T13:45:33.982Z,9.20
2023-03-22T13:48:11.552Z,11.20
2023-03-22T13:50:45.009Z,12.00
2023-03-22T13:53:25.953Z,11.20
2023-03-22T13:56:04.884Z,8.30
2023-03-22T13:58:50.186Z,10.60
2023-03-22T14:01:35.266Z,8.00
2023-03-22T14:04:10.944Z,9.50
2023-03-22T14:06:48.998Z,8.00
2023-03-22T14:09:26.862Z,8.40
2023-03-22T14:12:02.369Z,8.20
2023-03-22T14:14:38.185Z,7.60
2023-03-22T14:17:17.860Z,17.70
2023-03-22T14:19:50.763Z,11.50
